Time;durP1;ratioP1;P1;durP2;ratioP2;P2;SDS_P1;SDS_P2;PMS_P1;PMS_P2;Temp;Humidity;BMP_temperature;BMP_pressure;BME280_temperature;BME280_humidity;BME280_pressure;Samples;Min_cycle;Max_cycle;Signal;HPM_P1;HPM_P2
2023/02/22 00:07:13;;;;;;;18.40;7.35;;;;;;;;;;12793299;19;20456;-70
2023/02/22 00:11:47;;;;;;;14.65;4.88;;;;;;;;;;12796717;19;20592;-69
2023/02/22 00:22:18;;;;;;;14.23;5.70;;;;;;;;;;12801700;19;20371;-69
2023/02/22 00:32:47;;;;;;;17.02;5.55;;;;;;;;;;12799296;19;20464;-69
2023/02/22 00:37:13;;;;;;;17.40;7.20;;;;;;;;;;12797229;19;20687;-69
2023/02/22 00:42:57;;;;;;;17.10;6.75;;;;;;;;;;12798335;19;20639;-69
2023/02/22 00:48:12;;;;;;;21.20;5.97;;;;;;;;;;12812599;19;20441;-69
2023/02/22 00:52:50;;;;;;;16.23;6.60;;;;;;;;;;12813356;19;20436;-69
2023/02/22 00:57:15;;;;;;;14.15;4.82;;;;;;;;;;12813929;19;20481;-70
2023/02/22 01:02:28;;;;;;;17.50;5.00;;;;;;;;;;12803460;19;20418;-69
2023/02/22 01:08:14;;;;;;;16.77;5.80;;;;;;;;;;12805367;19;20569;-69
2023/02/22 01:12:50;;;;;;;16.27;5.22;;;;;;;;;;12802890;19;20327;-69
2023/02/22 01:17:10;;;;;;;16.75;5.20;;;;;;;;;;12802674;19;20979;-70
2023/02/22 01:22:27;;;;;;;17.90;5.72;;;;;;;;;;12803048;19;20830;-70
2023/02/22 01:37:48;;;;;;;18.60;5.20;;;;;;;;;;12802092;19;20314;-72
2023/02/22 01:43:17;;;;;;;19.50;5.72;;;;;;;;;;12803957;19;20011;-69
2023/02/22 01:59:10;;;;;;;12.05;3.72;;;;;;;;;;12807581;19;20437;-70
2023/02/22 02:11:13;;;;;;;13.38;4.43;;;;;;;;;;12794335;19;20458;-69
2023/02/22 02:16:07;;;;;;;21.90;4.18;;;;;;;;;;12794849;19;20574;-69
2023/02/22 02:21:10;;;;;;;12.38;3.95;;;;;;;;;;12804154;19;20338;-69
2023/02/22 02:32:28;;;;;;;8.73;3.33;;;;;;;;;;12803551;19;20310;-69
2023/02/22 02:38:28;;;;;;;7.85;3.70;;;;;;;;;;12805915;19;20011;-69
2023/02/22 02:43:53;;;;;;;11.98;4.13;;;;;;;;;;12799017;19;20522;-69
2023/02/22 02:54:58;;;;;;;18.70;5.15;;;;;;;;;;12808705;19;20632;-69
2023/02/22 02:59:47;;;;;;;16.98;4.40;;;;;;;;;;12805667;19;20430;-70
2023/02/22 03:05:02;;;;;;;19.77;6.18;;;;;;;;;;12807714;19;20425;-69
2023/02/22 03:11:16;;;;;;;15.60;5.38;;;;;;;;;;12802433;19;20326;-69
2023/02/22 03:16:45;;;;;;;19.98;6.28;;;;;;;;;;12796811;19;20010;-69
2023/02/22 03:22:23;;;;;;;20.58;5.50;;;;;;;;;;12800647;19;20449;-69
2023/02/22 03:27:29;;;;;;;13.38;4.20;;;;;;;;;;12794905;19;20457;-69
2023/02/22 03:32:47;;;;;;;18.40;5.72;;;;;;;;;;12798291;19;20456;-69
2023/02/22 03:37:22;;;;;;;21.90;5.68;;;;;;;;;;12796437;19;20441;-69
2023/02/22 03:42:52;;;;;;;20.10;5.88;;;;;;;;;;12802590;19;20893;-69
2023/02/22 03:53:09;;;;;;;20.48;6.40;;;;;;;;;;12799555;19;20210;-69
2023/02/22 04:04:10;;;;;;;13.02;5.25;;;;;;;;;;12789107;19;20007;-69
2023/02/22 04:09:22;;;;;;;30.42;9.27;;;;;;;;;;12799427;19;20327;-69
2023/02/22 04:14:06;;;;;;;24.85;10.18;;;;;;;;;;12793887;19;20364;-70
2023/02/22 04:30:29;;;;;;;35.42;12.18;;;;;;;;;;12793436;19;20318;-72
2023/02/22 04:35:06;;;;;;;39.88;10.93;;;;;;;;;;12801441;19;20777;-72
2023/02/22 04:46:09;;;;;;;33.70;12.98;;;;;;;;;;12790742;19;20421;-69
2023/02/22 04:50:51;;;;;;;18.85;7.13;;;;;;;;;;12787495;19;20382;-69
2023/02/22 04:55:49;;;;;;;17.70;6.53;;;;;;;;;;12794471;19;20500;-69
2023/02/22 05:00:23;;;;;;;21.65;7.93;;;;;;;;;;12790762;19;20431;-69
2023/02/22 05:11:09;;;;;;;31.52;12.30;;;;;;;;;;12790076;19;20577;-69
2023/02/22 05:15:49;;;;;;;34.03;11.77;;;;;;;;;;12785553;19;20428;-70
2023/02/22 05:20:45;;;;;;;29.15;11.02;;;;;;;;;;12795380;19;20504;-69
2023/02/22 05:31:01;;;;;;;25.23;9.77;;;;;;;;;;12795826;19;20316;-69
2023/02/22 05:35:55;;;;;;;23.67;9.95;;;;;;;;;;12796407;19;20018;-69
2023/02/22 05:41:03;;;;;;;20.85;8.63;;;;;;;;;;12801397;19;20789;-69
2023/02/22 05:45:26;;;;;;;22.00;9.23;;;;;;;;;;12809396;19;20449;-69
2023/02/22 05:55:16;;;;;;;24.60;8.23;;;;;;;;;;12811323;19;20299;-68
2023/02/22 06:00:16;;;;;;;18.92;8.15;;;;;;;;;;12805863;19;20477;-69
2023/02/22 06:04:49;;;;;;;15.57;6.35;;;;;;;;;;12809738;19;20484;-70
2023/02/22 06:16:15;;;;;;;14.45;5.53;;;;;;;;;;12802273;19;20383;-69
2023/02/22 06:26:17;;;;;;;16.02;5.60;;;;;;;;;;12793934;19;20434;-69
2023/02/22 06:30:47;;;;;;;18.90;6.38;;;;;;;;;;12801117;19;20430;-69
2023/02/22 06:41:15;;;;;;;17.58;5.93;;;;;;;;;;12794130;19;20423;-69
2023/02/22 06:46:22;;;;;;;16.00;5.80;;;;;;;;;;12797172;19;20434;-69
2023/02/22 06:51:03;;;;;;;14.55;5.10;;;;;;;;;;12800884;19;20367;-69
2023/02/22 06:56:01;;;;;;;11.70;4.90;;;;;;;;;;12808545;19;20509;-69
2023/02/22 07:01:20;;;;;;;39.45;14.23;;;;;;;;;;12797114;19;20042;-69
2023/02/22 07:06:51;;;;;;;31.50;12.88;;;;;;;;;;12797316;19;20313;-69
2023/02/22 07:11:16;;;;;;;42.83;15.43;;;;;;;;;;12801478;19;20438;-70
2023/02/22 07:15:52;;;;;;;40.47;16.25;;;;;;;;;;12802578;19;20426;-69
2023/02/22 07:20:52;;;;;;;19.88;6.60;;;;;;;;;;12782816;19;20352;-68
2023/02/22 07:26:23;;;;;;;20.67;7.88;;;;;;;;;;12786116;19;20918;-69
2023/02/22 07:31:49;;;;;;;17.08;6.82;;;;;;;;;;12781938;19;20027;-69
2023/02/22 07:36:46;;;;;;;17.33;6.75;;;;;;;;;;12802664;19;20450;-70
2023/02/22 07:41:06;;;;;;;16.00;5.93;;;;;;;;;;12804257;19;20421;-69
2023/02/22 07:46:04;;;;;;;18.52;5.30;;;;;;;;;;12802702;19;20438;-69
2023/02/22 07:51:10;;;;;;;17.27;4.75;;;;;;;;;;12795799;19;20496;-69
2023/02/22 07:55:50;;;;;;;18.02;5.32;;;;;;;;;;12801062;19;20295;-69
2023/02/22 08:00:49;;;;;;;20.63;8.15;;;;;;;;;;12802223;19;20544;-69
2023/02/22 08:06:03;;;;;;;11.85;4.80;;;;;;;;;;12805231;19;20478;-69
2023/02/22 08:11:49;;;;;;;16.90;5.28;;;;;;;;;;12790226;19;20859;-69
2023/02/22 08:21:51;;;;;;;10.18;4.13;;;;;;;;;;12795910;19;20439;-69
2023/02/22 08:27:08;;;;;;;13.48;4.25;;;;;;;;;;12802394;19;20031;-69
2023/02/22 08:44:01;;;;;;;4.63;1.58;;;;;;;;;;12787149;19;20312;-73
2023/02/22 08:48:48;;;;;;;8.52;2.40;;;;;;;;;;12790227;19;20576;-70
2023/02/22 08:53:27;;;;;;;6.35;1.92;;;;;;;;;;12799032;19;20456;-69
2023/02/22 09:04:20;;;;;;;5.07;1.48;;;;;;;;;;12800180;19;20363;-69
2023/02/22 09:09:28;;;;;;;5.20;2.13;;;;;;;;;;12804643;19;20311;-72
2023/02/22 09:19:14;;;;;;;7.05;2.15;;;;;;;;;;12801964;19;20445;-69
2023/02/22 09:24:14;;;;;;;7.85;2.35;;;;;;;;;;12810605;19;20505;-72
2023/02/22 09:29:28;;;;;;;5.68;1.60;;;;;;;;;;12807470;19;20352;-70
2023/02/22 09:39:17;;;;;;;10.13;1.80;;;;;;;;;;12812144;19;20440;-69
2023/02/22 09:50:15;;;;;;;5.68;2.08;;;;;;;;;;12800580;19;20493;-69
2023/02/22 09:55:46;;;;;;;5.35;1.88;;;;;;;;;;12806558;19;20386;-69
2023/02/22 10:00:52;;;;;;;8.55;1.95;;;;;;;;;;12806525;19;20540;-69
2023/02/22 10:12:18;;;;;;;5.18;1.75;;;;;;;;;;12806113;19;20323;-73
2023/02/22 10:17:54;;;;;;;11.52;2.40;;;;;;;;;;12802847;19;20307;-69
2023/02/22 10:22:45;;;;;;;3.90;1.48;;;;;;;;;;12800888;19;20505;-71
2023/02/22 10:34:25;;;;;;;8.32;3.00;;;;;;;;;;12806904;19;19999;-69
2023/02/22 10:39:47;;;;;;;10.98;3.05;;;;;;;;;;12801307;19;20851;-70
2023/02/22 10:44:14;;;;;;;5.65;1.92;;;;;;;;;;12801147;19;20438;-69
2023/02/22 10:54:49;;;;;;;6.75;1.98;;;;;;;;;;12808025;19;20470;-68
2023/02/22 11:00:25;;;;;;;11.23;2.22;;;;;;;;;;12797422;19;20329;-68
2023/02/22 11:05:51;;;;;;;6.72;2.00;;;;;;;;;;12806630;19;20374;-68
2023/02/22 11:23:07;;;;;;;6.80;1.83;;;;;;;;;;12791126;19;20019;-68
2023/02/22 11:27:45;;;;;;;5.32;1.27;;;;;;;;;;12795837;19;20339;-68
2023/02/22 11:33:28;;;;;;;9.68;1.77;;;;;;;;;;12797659;19;20408;-68
2023/02/22 11:39:24;;;;;;;7.45;1.73;;;;;;;;;;12794006;19;20987;-68
2023/02/22 11:44:45;;;;;;;7.60;2.30;;;;;;;;;;12797204;19;20747;-68
2023/02/22 11:49:12;;;;;;;14.55;3.25;;;;;;;;;;12794196;19;20438;-68
2023/02/22 12:00:23;;;;;;;5.72;1.55;;;;;;;;;;12804085;19;20465;-68
2023/02/22 12:05:58;;;;;;;7.15;2.83;;;;;;;;;;12801038;19;20460;-69
2023/02/22 12:10:54;;;;;;;9.60;2.45;;;;;;;;;;12795076;19;20438;-67
2023/02/22 12:16:20;;;;;;;5.72;2.17;;;;;;;;;;12801419;19;20448;-68
2023/02/22 12:22:07;;;;;;;4.80;1.70;;;;;;;;;;12788425;19;20501;-68
2023/02/22 12:33:15;;;;;;;5.13;1.70;;;;;;;;;;12795882;19;20452;-68
2023/02/22 12:38:44;;;;;;;7.20;1.65;;;;;;;;;;12794286;19;20298;-68
2023/02/22 12:55:57;;;;;;;9.85;2.67;;;;;;;;;;12813955;19;20391;-68
2023/02/22 13:00:50;;;;;;;6.32;2.75;;;;;;;;;;12813337;19;20932;-71
2023/02/22 13:05:17;;;;;;;7.22;2.00;;;;;;;;;;12811514;19;20343;-68
2023/02/22 13:17:07;;;;;;;8.55;2.13;;;;;;;;;;12813903;19;20037;-71
2023/02/22 13:22:44;;;;;;;5.53;1.70;;;;;;;;;;12809638;19;20433;-68
2023/02/22 13:27:48;;;;;;;9.15;2.05;;;;;;;;;;12802515;19;20011;-71
2023/02/22 13:32:12;;;;;;;5.80;1.80;;;;;;;;;;12806103;19;20331;-68
2023/02/22 13:43:08;;;;;;;7.88;3.15;;;;;;;;;;12803708;19;20432;-68
2023/02/22 13:48:14;;;;;;;7.57;2.97;;;;;;;;;;12808367;19;20371;-68
2023/02/22 13:59:06;;;;;;;6.13;3.10;;;;;;;;;;12795186;19;20024;-68
2023/02/22 14:03:49;;;;;;;2.65;1.65;;;;;;;;;;12800072;19;20368;-68
2023/02/22 14:08:44;;;;;;;8.73;2.60;;;;;;;;;;12804739;19;20346;-68
2023/02/22 14:19:59;;;;;;;5.28;1.67;;;;;;;;;;12794357;19;20355;-68
2023/02/22 14:25:02;;;;;;;8.32;2.10;;;;;;;;;;12797623;19;20734;-68
2023/02/22 14:29:58;;;;;;;16.05;3.17;;;;;;;;;;12805633;19;20425;-68
2023/02/22 14:34:53;;;;;;;5.82;2.10;;;;;;;;;;12807572;19;20437;-68
2023/02/22 14:51:27;;;;;;;12.05;3.50;;;;;;;;;;12798742;19;20342;-68
2023/02/22 14:57:10;;;;;;;10.27;3.78;;;;;;;;;;12799579;19;20018;-69
2023/02/22 15:02:10;;;;;;;12.57;5.68;;;;;;;;;;12797108;19;20082;-68
2023/02/22 15:07:26;;;;;;;5.07;1.55;;;;;;;;;;12799713;19;20021;-68
2023/02/22 15:12:45;;;;;;;12.70;6.15;;;;;;;;;;12792490;19;20392;-69
2023/02/22 15:18:11;;;;;;;17.30;7.80;;;;;;;;;;12795455;19;20330;-72
2023/02/22 15:22:50;;;;;;;11.02;5.40;;;;;;;;;;12796869;19;20014;-69
2023/02/22 15:27:53;;;;;;;13.88;5.68;;;;;;;;;;12794750;19;20110;-68
2023/02/22 15:38:20;;;;;;;10.38;4.47;;;;;;;;;;12789853;19;20454;-68
2023/02/22 15:42:51;;;;;;;13.10;6.10;;;;;;;;;;12798459;19;20837;-68
2023/02/22 15:54:08;;;;;;;15.60;5.90;;;;;;;;;;12800142;19;20465;-69
2023/02/22 15:59:28;;;;;;;18.95;6.45;;;;;;;;;;12800394;19;20355;-69
2023/02/22 16:04:23;;;;;;;20.02;6.25;;;;;;;;;;12798751;19;20430;-67
2023/02/22 16:09:11;;;;;;;12.40;4.53;;;;;;;;;;12802878;19;20461;-68
2023/02/22 16:14:47;;;;;;;18.83;5.28;;;;;;;;;;12794498;19;20347;-69
2023/02/22 16:20:51;;;;;;;14.52;5.85;;;;;;;;;;12803134;19;20388;-69
2023/02/22 16:30:32;;;;;;;21.48;6.93;;;;;;;;;;12799511;19;20554;-68
2023/02/22 16:35:58;;;;;;;22.70;6.93;;;;;;;;;;12802156;19;20352;-68
2023/02/22 16:40:59;;;;;;;22.83;6.65;;;;;;;;;;12794532;19;20642;-71
2023/02/22 16:45:48;;;;;;;19.58;7.13;;;;;;;;;;12787759;19;20429;-69
2023/02/22 16:50:22;;;;;;;29.63;13.63;;;;;;;;;;12793152;19;20504;-68
2023/02/22 17:01:16;;;;;;;24.27;8.70;;;;;;;;;;12792167;19;20441;-69
2023/02/22 17:06:22;;;;;;;24.35;8.25;;;;;;;;;;12789040;19;20516;-70
2023/02/22 17:11:27;;;;;;;29.48;11.45;;;;;;;;;;12788672;19;20051;-69
2023/02/22 17:16:13;;;;;;;32.90;13.33;;;;;;;;;;12798657;19;20363;-69
2023/02/22 17:21:46;;;;;;;36.75;14.45;;;;;;;;;;12799007;19;20322;-69
2023/02/22 17:26:51;;;;;;;;;;;;;;;;;;12806417;19;20461;-68
2023/02/22 17:31:48;;;;;;;;;;;;;;;;;;12805201;19;19917;-69
2023/02/22 17:36:46;;;;;;;46.80;19.42;;;;;;;;;;12801666;19;20211;-68
2023/02/22 17:41:18;;;;;;;73.47;25.38;;;;;;;;;;12802272;19;20668;-69
2023/02/22 17:46:51;;;;;;;109.40;36.90;;;;;;;;;;12795592;19;20409;-69
2023/02/22 17:51:51;;;;;;;86.38;34.28;;;;;;;;;;12798355;19;20440;-69
2023/02/22 17:56:45;;;;;;;90.18;29.15;;;;;;;;;;12794646;19;20323;-69
2023/02/22 18:01:29;;;;;;;118.40;40.30;;;;;;;;;;12799764;19;20475;-68
2023/02/22 18:12:46;;;;;;;93.72;33.05;;;;;;;;;;12796171;19;20307;-69
2023/02/22 18:18:02;;;;;;;95.40;34.53;;;;;;;;;;12794068;19;20433;-69
2023/02/22 18:22:46;;;;;;;112.63;40.33;;;;;;;;;;12794177;19;20339;-69
2023/02/22 18:33:57;;;;;;;126.93;38.60;;;;;;;;;;12797338;19;20306;-69
2023/02/22 18:39:10;;;;;;;79.13;28.42;;;;;;;;;;12802944;19;20441;-68
2023/02/22 18:43:59;;;;;;;63.63;22.27;;;;;;;;;;12799576;19;20026;-68
2023/02/22 18:48:48;;;;;;;62.58;23.08;;;;;;;;;;12806473;19;20357;-69
2023/02/22 18:54:47;;;;;;;47.75;19.48;;;;;;;;;;12801917;19;20780;-68
2023/02/22 18:59:58;;;;;;;55.25;21.90;;;;;;;;;;12805030;19;20473;-68
2023/02/22 19:04:47;;;;;;;56.20;21.63;;;;;;;;;;12805719;19;20456;-69
2023/02/22 19:09:21;;;;;;;43.88;18.90;;;;;;;;;;12807236;19;20475;-69
2023/02/22 19:14:49;;;;;;;56.65;20.25;;;;;;;;;;12800990;19;20482;-68
2023/02/22 19:25:15;;;;;;;50.55;20.42;;;;;;;;;;12795865;19;20343;-68
2023/02/22 19:29:52;;;;;;;51.00;19.48;;;;;;;;;;12792056;19;20041;-67
2023/02/22 19:34:52;;;;;;;;;;;;;;;;;;12794431;19;20047;-68
2023/02/22 19:39:56;;;;;;;51.95;21.25;;;;;;;;;;12795860;19;20310;-67
2023/02/22 19:44:56;;;;;;;45.08;20.05;;;;;;;;;;12793876;19;20430;-68
2023/02/22 19:49:48;;;;;;;45.67;22.02;;;;;;;;;;12785987;19;20456;-68
2023/02/22 19:54:48;;;;;;;50.78;19.77;;;;;;;;;;12794045;19;20018;-68
2023/02/22 20:06:18;;;;;;;57.45;21.88;;;;;;;;;;12795988;19;20479;-67
2023/02/22 20:11:09;;;;;;;56.03;22.42;;;;;;;;;;12793508;19;20442;-68
2023/02/22 20:15:56;;;;;;;68.38;26.02;;;;;;;;;;12787183;19;20446;-68
2023/02/22 20:20:50;;;;;;;53.63;20.02;;;;;;;;;;12795685;19;20604;-68
2023/02/22 20:26:03;;;;;;;39.00;16.42;;;;;;;;;;12791760;19;20312;-68
2023/02/22 20:31:23;;;;;;;38.75;16.90;;;;;;;;;;12791977;19;20513;-68
2023/02/22 20:36:48;;;;;;;42.17;14.80;;;;;;;;;;12788255;19;20449;-68
2023/02/22 20:41:22;;;;;;;39.75;17.02;;;;;;;;;;12787034;19;20456;-67
2023/02/22 20:46:58;;;;;;;116.95;33.55;;;;;;;;;;12791995;19;20485;-68
2023/02/22 20:51:50;;;;;;;70.22;28.02;;;;;;;;;;12785732;19;20017;-68
2023/02/22 20:56:49;;;;;;;66.00;23.20;;;;;;;;;;12789313;19;20327;-68
2023/02/22 21:01:25;;;;;;;54.85;20.42;;;;;;;;;;12800648;19;20452;-68
2023/02/22 21:12:52;;;;;;;56.83;16.38;;;;;;;;;;12808567;19;20442;-68
2023/02/22 21:17:49;;;;;;;44.22;15.35;;;;;;;;;;12798566;19;20447;-68
2023/02/22 21:22:09;;;;;;;75.05;22.38;;;;;;;;;;12808136;19;20449;-68
2023/02/22 21:26:57;;;;;;;86.18;23.85;;;;;;;;;;12810527;19;20529;-69
2023/02/22 21:31:57;;;;;;;65.47;19.40;;;;;;;;;;12807989;19;20786;-68
2023/02/22 21:36:52;;;;;;;49.88;16.33;;;;;;;;;;12811425;19;20350;-68
2023/02/22 21:41:14;;;;;;;142.88;38.55;;;;;;;;;;12809944;19;20002;-68
2023/02/22 21:57:11;;;;;;;36.53;12.20;;;;;;;;;;12811158;19;20434;-68
2023/02/22 22:01:57;;;;;;;143.68;30.45;;;;;;;;;;12807998;19;20330;-67
2023/02/22 22:07:23;;;;;;;61.42;16.83;;;;;;;;;;12805657;19;20328;-68
2023/02/22 22:13:00;;;;;;;196.68;40.70;;;;;;;;;;12799651;19;20394;-68
2023/02/22 22:18:08;;;;;;;205.35;40.20;;;;;;;;;;12808230;19;20437;-68
2023/02/22 22:23:03;;;;;;;93.45;18.92;;;;;;;;;;12808461;19;20520;-69
2023/02/22 22:28:35;;;;;;;90.82;19.52;;;;;;;;;;12801975;19;20410;-69
2023/02/22 22:33:50;;;;;;;40.35;12.30;;;;;;;;;;12803372;19;20498;-68
2023/02/22 22:44:11;;;;;;;36.90;10.90;;;;;;;;;;12807400;19;20526;-68
2023/02/22 22:55:10;;;;;;;169.35;31.52;;;;;;;;;;12804517;19;20429;-69
2023/02/22 22:59:44;;;;;;;52.47;13.57;;;;;;;;;;12809597;19;20363;-69
2023/02/22 23:04:10;;;;;;;52.30;12.35;;;;;;;;;;12800327;19;20290;-67
2023/02/22 23:08:44;;;;;;;39.38;11.70;;;;;;;;;;12804688;19;20363;-68
2023/02/22 23:13:14;;;;;;;39.78;11.57;;;;;;;;;;12804249;19;20018;-68
2023/02/22 23:18:08;;;;;;;17.77;4.67;;;;;;;;;;12799097;19;20028;-68
2023/02/22 23:23:13;;;;;;;27.88;7.28;;;;;;;;;;12795909;19;20632;-68
2023/02/22 23:28:16;;;;;;;22.42;7.63;;;;;;;;;;12801394;19;20437;-68
2023/02/22 23:32:45;;;;;;;16.90;6.40;;;;;;;;;;12804292;19;20517;-68
2023/02/22 23:38:02;;;;;;;30.95;9.80;;;;;;;;;;12805043;19;20795;-68
2023/02/22 23:43:05;;;;;;;26.98;8.48;;;;;;;;;;12802554;19;20307;-68
2023/02/22 23:47:53;;;;;;;26.92;7.88;;;;;;;;;;12806421;19;20719;-68
2023/02/22 23:53:20;;;;;;;11.13;4.10;;;;;;;;;;12801461;19;20555;-68
